Ashcroft

Ashcroft

Ashcroft Airfield (EGCR) is located 2nm south west of  Winsford in Cheshire.

It offers four grass runways:

  • 09/27 520m x 11m with lights
  • 13/31 500m x 12m
  • 17/35 350m x 10m
  • 12/30 500m x 10m

Safety Com 135.475

Link for Ashcroft Airfield Pilot Briefing.

Manchester Weather
EGCC 252256Z 2600/2706 24005KT 9999 SCT030 TEMPO 2606/2613 8000 -RA PROB30 TEMPO 2606/2613 4000 RADZ BKN012 BECMG 2609/2612 26015G28KT PROB40 TEMPO 2613/2616 6000 SHRA BKN012 BECMG 2618/2621 29008KT